Startpagina
METAR-TAF:

METAR-TAF

Vliegvelden :

Aeroporto Humberto Delgado

Lissabon, Portugal

breedte: 38-46N, lengte: 009-08W, hoogte: 114 m

Actueel weer

Dit bericht is 21 minuten geleden gemaakt, om 05:00 UTC
Wind 4 kt uit het westen
Temperatuur 9°C
Vochtigheid 93%
Druk 1024 hPa
Zicht 10 km of meer
Weinig wolken op 3000 ft

METAR: LPPT 140500Z 26004KT 9999 FEW030 09/08 Q1024

Tijdstip: 05:21 (05:21 UTC)

Verwachting

Dit bericht is 6 uur en het 21 minuten geleden gemaakt, om 23:00 UTC
Verwachting geldig van 14 om 00 UTC tot 15 om 06 UTC
Wind 7 kt uit het westnoordwesten
Zicht 10 km of meer
Weinig wolken op 2500 ft
Wijzigt naar
van 14 om 18 UTC tot 14 om 21 UTC
Wind 7 kt uit het zuidwesten
Weinig wolken op 1500 ft
Verspreide wolken op 3000 ft

TAF: LPPT 132300Z 1400/1506 30007KT 9999 FEW025 BECMG 1418/1421 22007KT FEW015 SCT030

Waarnemingen en weersverwachtingen van meer dan 4000 vliegvelden (METAR en TAF).

De beschikbare stations zijn de gele en rode punten op de kaart.

Ga met uw muis naar het station om de naam te zien.

Klik dan om waarnemingen en weersverwachtingen te zien.

kaart wijzigen: klik op de groene knoppen met een zwart kruis om in te zoomen, op de groene knop met een streepje om uit te zoomen of op de groene pijlen voor aangrenzende kaarten.


METAR-TAF: